sensor_id;sensor_type;location;lat;lon;timestamp;temperature;humidity
29687;DHT22;16599;47.078;15.536;2024-02-23T00:01:08;8.20;97.90
29687;DHT22;16599;47.078;15.536;2024-02-23T00:03:37;8.20;98.10
29687;DHT22;16599;47.078;15.536;2024-02-23T00:06:04;8.30;98.00
29687;DHT22;16599;47.078;15.536;2024-02-23T00:08:31;8.20;98.20
29687;DHT22;16599;47.078;15.536;2024-02-23T00:10:57;8.30;98.10
29687;DHT22;16599;47.078;15.536;2024-02-23T00:13:24;8.30;98.30
29687;DHT22;16599;47.078;15.536;2024-02-23T00:15:51;8.30;98.20
29687;DHT22;16599;47.078;15.536;2024-02-23T00:18:18;8.30;98.50
29687;DHT22;16599;47.078;15.536;2024-02-23T00:20:46;8.30;98.50
29687;DHT22;16599;47.078;15.536;2024-02-23T00:23:13;8.30;98.70
29687;DHT22;16599;47.078;15.536;2024-02-23T00:25:39;8.30;98.80
29687;DHT22;16599;47.078;15.536;2024-02-23T00:28:06;8.30;98.50
29687;DHT22;16599;47.078;15.536;2024-02-23T00:30:34;8.20;99.00
29687;DHT22;16599;47.078;15.536;2024-02-23T00:33:01;8.20;99.20
29687;DHT22;16599;47.078;15.536;2024-02-23T00:35:28;8.30;98.90
29687;DHT22;16599;47.078;15.536;2024-02-23T00:37:55;8.20;99.90
29687;DHT22;16599;47.078;15.536;2024-02-23T00:40:22;8.10;99.90
29687;DHT22;16599;47.078;15.536;2024-02-23T00:42:50;8.10;99.90
29687;DHT22;16599;47.078;15.536;2024-02-23T00:45:16;8.10;99.90
29687;DHT22;16599;47.078;15.536;2024-02-23T00:47:44;8.10;99.90
29687;DHT22;16599;47.078;15.536;2024-02-23T00:50:12;8.10;99.90
29687;DHT22;16599;47.078;15.536;2024-02-23T00:52:39;8.20;99.90
29687;DHT22;16599;47.078;15.536;2024-02-23T00:55:07;8.20;99.90
29687;DHT22;16599;47.078;15.536;2024-02-23T00:57:35;8.10;99.90
29687;DHT22;16599;47.078;15.536;2024-02-23T01:00:02;8.20;99.90
29687;DHT22;16599;47.078;15.536;2024-02-23T01:02:31;8.00;99.90
29687;DHT22;16599;47.078;15.536;2024-02-23T01:04:59;8.00;99.90
29687;DHT22;16599;47.078;15.536;2024-02-23T01:07:26;8.00;99.90
29687;DHT22;16599;47.078;15.536;2024-02-23T01:09:54;8.10;99.90
29687;DHT22;16599;47.078;15.536;2024-02-23T01:12:21;8.10;99.90
29687;DHT22;16599;47.078;15.536;2024-02-23T01:14:48;8.20;99.90
29687;DHT22;16599;47.078;15.536;2024-02-23T01:17:15;8.20;99.90
29687;DHT22;16599;47.078;15.536;2024-02-23T01:19:42;8.10;99.90
29687;DHT22;16599;47.078;15.536;2024-02-23T01:22:10;8.10;99.90
29687;DHT22;16599;47.078;15.536;2024-02-23T01:24:36;8.10;99.90
29687;DHT22;16599;47.078;15.536;2024-02-23T01:27:03;8.10;99.90
29687;DHT22;16599;47.078;15.536;2024-02-23T01:29:30;8.10;99.90
29687;DHT22;16599;47.078;15.536;2024-02-23T01:31:57;8.00;99.90
29687;DHT22;16599;47.078;15.536;2024-02-23T01:34:24;8.00;99.90
29687;DHT22;16599;47.078;15.536;2024-02-23T01:36:51;7.80;99.90
29687;DHT22;16599;47.078;15.536;2024-02-23T01:39:17;7.80;99.90
29687;DHT22;16599;47.078;15.536;2024-02-23T01:41:44;7.80;99.90
29687;DHT22;16599;47.078;15.536;2024-02-23T01:44:11;7.80;99.90
29687;DHT22;16599;47.078;15.536;2024-02-23T01:46:38;7.80;99.90
29687;DHT22;16599;47.078;15.536;2024-02-23T01:49:05;7.70;99.90
29687;DHT22;16599;47.078;15.536;2024-02-23T01:51:34;7.70;99.90
29687;DHT22;16599;47.078;15.536;2024-02-23T01:54:01;7.60;99.90
29687;DHT22;16599;47.078;15.536;2024-02-23T01:56:29;7.50;99.90
29687;DHT22;16599;47.078;15.536;2024-02-23T01:58:57;7.50;99.90
29687;DHT22;16599;47.078;15.536;2024-02-23T02:01:24;7.50;99.90
29687;DHT22;16599;47.078;15.536;2024-02-23T02:03:51;7.40;99.90
29687;DHT22;16599;47.078;15.536;2024-02-23T02:06:18;7.50;99.90
29687;DHT22;16599;47.078;15.536;2024-02-23T02:08:45;7.40;99.90
29687;DHT22;16599;47.078;15.536;2024-02-23T02:11:12;7.40;99.90
29687;DHT22;16599;47.078;15.536;2024-02-23T02:13:39;7.30;99.90
29687;DHT22;16599;47.078;15.536;2024-02-23T02:16:05;7.20;99.90
29687;DHT22;16599;47.078;15.536;2024-02-23T02:18:32;7.20;99.90
29687;DHT22;16599;47.078;15.536;2024-02-23T02:20:59;7.20;99.90
29687;DHT22;16599;47.078;15.536;2024-02-23T02:23:26;7.10;99.90
29687;DHT22;16599;47.078;15.536;2024-02-23T02:25:54;7.20;99.90
29687;DHT22;16599;47.078;15.536;2024-02-23T02:28:21;7.20;99.90
29687;DHT22;16599;47.078;15.536;2024-02-23T02:30:48;7.20;99.90
29687;DHT22;16599;47.078;15.536;2024-02-23T02:33:15;7.10;99.90
29687;DHT22;16599;47.078;15.536;2024-02-23T02:35:42;7.10;99.90
29687;DHT22;16599;47.078;15.536;2024-02-23T02:38:10;7.00;99.90
29687;DHT22;16599;47.078;15.536;2024-02-23T02:40:37;7.10;99.90
29687;DHT22;16599;47.078;15.536;2024-02-23T02:43:04;7.00;99.90
29687;DHT22;16599;47.078;15.536;2024-02-23T02:45:31;7.00;99.90
29687;DHT22;16599;47.078;15.536;2024-02-23T02:47:59;7.00;99.90
29687;DHT22;16599;47.078;15.536;2024-02-23T02:50:26;7.00;99.90
29687;DHT22;16599;47.078;15.536;2024-02-23T02:52:53;6.90;99.90
29687;DHT22;16599;47.078;15.536;2024-02-23T02:55:20;6.90;99.90
29687;DHT22;16599;47.078;15.536;2024-02-23T02:57:47;6.70;99.90
29687;DHT22;16599;47.078;15.536;2024-02-23T03:00:14;6.70;99.90
29687;DHT22;16599;47.078;15.536;2024-02-23T03:02:40;6.80;99.90
29687;DHT22;16599;47.078;15.536;2024-02-23T03:05:07;6.90;99.90
29687;DHT22;16599;47.078;15.536;2024-02-23T03:07:34;6.80;99.90
29687;DHT22;16599;47.078;15.536;2024-02-23T03:10:01;6.80;99.90
29687;DHT22;16599;47.078;15.536;2024-02-23T03:12:28;6.70;99.90
29687;DHT22;16599;47.078;15.536;2024-02-23T03:14:55;6.70;99.90
29687;DHT22;16599;47.078;15.536;2024-02-23T03:17:22;6.70;99.90
29687;DHT22;16599;47.078;15.536;2024-02-23T03:19:49;6.70;99.90
29687;DHT22;16599;47.078;15.536;2024-02-23T03:22:19;6.70;99.90
29687;DHT22;16599;47.078;15.536;2024-02-23T03:24:46;6.80;99.90
29687;DHT22;16599;47.078;15.536;2024-02-23T03:27:13;6.80;99.90
29687;DHT22;16599;47.078;15.536;2024-02-23T03:29:40;6.80;99.90
29687;DHT22;16599;47.078;15.536;2024-02-23T03:32:07;6.60;99.90
29687;DHT22;16599;47.078;15.536;2024-02-23T03:34:35;6.60;99.90
29687;DHT22;16599;47.078;15.536;2024-02-23T03:37:01;6.60;99.90
29687;DHT22;16599;47.078;15.536;2024-02-23T03:39:29;6.60;99.90
29687;DHT22;16599;47.078;15.536;2024-02-23T03:41:56;6.60;99.90
29687;DHT22;16599;47.078;15.536;2024-02-23T03:44:23;6.60;99.90
29687;DHT22;16599;47.078;15.536;2024-02-23T03:46:50;6.60;99.90
29687;DHT22;16599;47.078;15.536;2024-02-23T03:49:17;6.60;99.90
29687;DHT22;16599;47.078;15.536;2024-02-23T03:51:44;6.60;99.90
29687;DHT22;16599;47.078;15.536;2024-02-23T03:54:11;6.50;99.90
29687;DHT22;16599;47.078;15.536;2024-02-23T03:56:41;6.50;99.90
29687;DHT22;16599;47.078;15.536;2024-02-23T03:59:08;6.50;99.90
29687;DHT22;16599;47.078;15.536;2024-02-23T04:01:38;6.40;99.90
29687;DHT22;16599;47.078;15.536;2024-02-23T04:04:06;6.50;99.90
29687;DHT22;16599;47.078;15.536;2024-02-23T04:06:33;6.50;99.90
29687;DHT22;16599;47.078;15.536;2024-02-23T04:09:00;6.40;99.90
29687;DHT22;16599;47.078;15.536;2024-02-23T04:11:27;6.40;99.90
29687;DHT22;16599;47.078;15.536;2024-02-23T04:13:54;6.40;99.90
29687;DHT22;16599;47.078;15.536;2024-02-23T04:16:22;6.40;99.90
29687;DHT22;16599;47.078;15.536;2024-02-23T04:18:49;6.40;99.90
29687;DHT22;16599;47.078;15.536;2024-02-23T04:21:16;6.30;99.90
29687;DHT22;16599;47.078;15.536;2024-02-23T04:23:43;6.30;99.90
29687;DHT22;16599;47.078;15.536;2024-02-23T04:26:10;6.40;99.90
29687;DHT22;16599;47.078;15.536;2024-02-23T04:28:40;6.40;99.90
29687;DHT22;16599;47.078;15.536;2024-02-23T04:31:08;6.40;99.90
29687;DHT22;16599;47.078;15.536;2024-02-23T04:33:35;6.20;99.90
29687;DHT22;16599;47.078;15.536;2024-02-23T04:36:03;6.30;99.90
29687;DHT22;16599;47.078;15.536;2024-02-23T04:38:30;6.30;99.90
29687;DHT22;16599;47.078;15.536;2024-02-23T04:40:57;6.30;99.90
29687;DHT22;16599;47.078;15.536;2024-02-23T04:43:24;6.20;99.90
29687;DHT22;16599;47.078;15.536;2024-02-23T04:45:51;6.30;99.90
29687;DHT22;16599;47.078;15.536;2024-02-23T04:48:18;6.20;99.90
29687;DHT22;16599;47.078;15.536;2024-02-23T04:50:45;6.20;99.90
29687;DHT22;16599;47.078;15.536;2024-02-23T04:53:11;6.20;99.90
29687;DHT22;16599;47.078;15.536;2024-02-23T04:55:38;6.20;99.90
29687;DHT22;16599;47.078;15.536;2024-02-23T04:58:05;6.10;99.90
29687;DHT22;16599;47.078;15.536;2024-02-23T05:00:32;6.20;99.90
29687;DHT22;16599;47.078;15.536;2024-02-23T05:03:02;6.20;99.90
29687;DHT22;16599;47.078;15.536;2024-02-23T05:05:30;6.10;99.90
29687;DHT22;16599;47.078;15.536;2024-02-23T05:07:58;6.10;99.90
29687;DHT22;16599;47.078;15.536;2024-02-23T05:10:26;6.10;99.90
29687;DHT22;16599;47.078;15.536;2024-02-23T05:12:53;6.00;99.90
29687;DHT22;16599;47.078;15.536;2024-02-23T05:15:20;6.00;99.90
29687;DHT22;16599;47.078;15.536;2024-02-23T05:17:47;5.90;99.90
29687;DHT22;16599;47.078;15.536;2024-02-23T05:20:14;6.00;99.90
29687;DHT22;16599;47.078;15.536;2024-02-23T05:22:41;6.00;99.90
29687;DHT22;16599;47.078;15.536;2024-02-23T05:25:08;6.00;99.90
29687;DHT22;16599;47.078;15.536;2024-02-23T05:27:35;5.90;99.90
29687;DHT22;16599;47.078;15.536;2024-02-23T05:30:02;5.80;99.90
29687;DHT22;16599;47.078;15.536;2024-02-23T05:32:29;5.90;99.90
29687;DHT22;16599;47.078;15.536;2024-02-23T05:34:56;5.90;99.90
29687;DHT22;16599;47.078;15.536;2024-02-23T05:37:24;5.80;99.90
29687;DHT22;16599;47.078;15.536;2024-02-23T05:39:51;5.80;99.90
29687;DHT22;16599;47.078;15.536;2024-02-23T05:42:18;5.60;99.90
29687;DHT22;16599;47.078;15.536;2024-02-23T05:44:44;5.60;99.90
29687;DHT22;16599;47.078;15.536;2024-02-23T05:47:11;5.60;99.90
29687;DHT22;16599;47.078;15.536;2024-02-23T05:49:40;5.60;99.90
29687;DHT22;16599;47.078;15.536;2024-02-23T05:52:07;5.50;99.90
29687;DHT22;16599;47.078;15.536;2024-02-23T05:54:34;5.50;99.90
29687;DHT22;16599;47.078;15.536;2024-02-23T05:57:01;5.50;99.90
29687;DHT22;16599;47.078;15.536;2024-02-23T05:59:29;5.40;99.90
29687;DHT22;16599;47.078;15.536;2024-02-23T06:01:56;5.30;99.90
29687;DHT22;16599;47.078;15.536;2024-02-23T06:04:26;5.40;99.90
29687;DHT22;16599;47.078;15.536;2024-02-23T06:06:53;5.30;99.90
29687;DHT22;16599;47.078;15.536;2024-02-23T06:09:21;5.30;99.90
29687;DHT22;16599;47.078;15.536;2024-02-23T06:11:47;5.30;99.90
29687;DHT22;16599;47.078;15.536;2024-02-23T06:14:15;5.40;99.90
29687;DHT22;16599;47.078;15.536;2024-02-23T06:16:42;5.30;99.90
29687;DHT22;16599;47.078;15.536;2024-02-23T06:19:08;5.30;99.90
29687;DHT22;16599;47.078;15.536;2024-02-23T06:21:35;5.20;99.90
29687;DHT22;16599;47.078;15.536;2024-02-23T06:24:03;5.20;99.90
29687;DHT22;16599;47.078;15.536;2024-02-23T06:26:31;5.00;99.90
29687;DHT22;16599;47.078;15.536;2024-02-23T06:28:58;4.70;99.90
29687;DHT22;16599;47.078;15.536;2024-02-23T06:31:25;4.80;99.90
29687;DHT22;16599;47.078;15.536;2024-02-23T06:33:52;4.90;99.90
29687;DHT22;16599;47.078;15.536;2024-02-23T06:36:19;4.70;99.90
29687;DHT22;16599;47.078;15.536;2024-02-23T06:38:46;4.90;99.90
29687;DHT22;16599;47.078;15.536;2024-02-23T06:41:13;5.10;99.90
29687;DHT22;16599;47.078;15.536;2024-02-23T06:43:41;4.90;99.90
29687;DHT22;16599;47.078;15.536;2024-02-23T06:46:08;4.90;99.90
29687;DHT22;16599;47.078;15.536;2024-02-23T06:48:35;5.00;99.90
29687;DHT22;16599;47.078;15.536;2024-02-23T06:51:03;5.00;99.90
29687;DHT22;16599;47.078;15.536;2024-02-23T06:53:30;5.10;99.90
29687;DHT22;16599;47.078;15.536;2024-02-23T06:55:57;5.10;99.90
29687;DHT22;16599;47.078;15.536;2024-02-23T06:58:26;5.10;99.90
29687;DHT22;16599;47.078;15.536;2024-02-23T07:00:53;5.20;99.90
29687;DHT22;16599;47.078;15.536;2024-02-23T07:03:20;5.20;99.90
29687;DHT22;16599;47.078;15.536;2024-02-23T07:05:47;5.20;99.90
29687;DHT22;16599;47.078;15.536;2024-02-23T07:08:14;5.20;99.90
29687;DHT22;16599;47.078;15.536;2024-02-23T07:10:41;5.20;99.90
29687;DHT22;16599;47.078;15.536;2024-02-23T07:13:08;5.30;99.90
29687;DHT22;16599;47.078;15.536;2024-02-23T07:15:35;5.30;99.90
29687;DHT22;16599;47.078;15.536;2024-02-23T07:18:05;5.40;99.90
29687;DHT22;16599;47.078;15.536;2024-02-23T07:20:32;5.40;99.90
29687;DHT22;16599;47.078;15.536;2024-02-23T07:22:59;5.60;99.90
29687;DHT22;16599;47.078;15.536;2024-02-23T07:25:25;5.70;99.90
29687;DHT22;16599;47.078;15.536;2024-02-23T07:27:52;5.60;99.90
29687;DHT22;16599;47.078;15.536;2024-02-23T07:30:19;5.70;99.90
29687;DHT22;16599;47.078;15.536;2024-02-23T07:32:46;5.70;99.90
29687;DHT22;16599;47.078;15.536;2024-02-23T07:35:18;5.80;99.90
29687;DHT22;16599;47.078;15.536;2024-02-23T07:37:45;5.90;99.90
29687;DHT22;16599;47.078;15.536;2024-02-23T07:40:13;6.00;99.90
29687;DHT22;16599;47.078;15.536;2024-02-23T07:42:43;6.00;99.90
29687;DHT22;16599;47.078;15.536;2024-02-23T07:45:10;6.10;99.90
29687;DHT22;16599;47.078;15.536;2024-02-23T07:47:37;6.10;99.90
29687;DHT22;16599;47.078;15.536;2024-02-23T07:50:04;6.20;99.90
29687;DHT22;16599;47.078;15.536;2024-02-23T07:52:31;6.20;99.90
29687;DHT22;16599;47.078;15.536;2024-02-23T07:54:58;6.30;99.90
29687;DHT22;16599;47.078;15.536;2024-02-23T07:57:26;6.30;99.90
29687;DHT22;16599;47.078;15.536;2024-02-23T07:59:53;6.40;99.90
29687;DHT22;16599;47.078;15.536;2024-02-23T08:02:21;6.50;99.90
29687;DHT22;16599;47.078;15.536;2024-02-23T08:04:47;6.50;99.90
29687;DHT22;16599;47.078;15.536;2024-02-23T08:07:16;6.50;99.90
29687;DHT22;16599;47.078;15.536;2024-02-23T08:09:43;6.60;99.90
29687;DHT22;16599;47.078;15.536;2024-02-23T08:12:11;6.60;99.90
29687;DHT22;16599;47.078;15.536;2024-02-23T08:14:40;6.70;99.90
29687;DHT22;16599;47.078;15.536;2024-02-23T08:17:10;6.70;99.90
29687;DHT22;16599;47.078;15.536;2024-02-23T08:19:36;6.80;99.90
29687;DHT22;16599;47.078;15.536;2024-02-23T08:22:03;6.90;99.90
29687;DHT22;16599;47.078;15.536;2024-02-23T08:24:30;6.90;99.90
29687;DHT22;16599;47.078;15.536;2024-02-23T08:26:58;7.00;99.90
29687;DHT22;16599;47.078;15.536;2024-02-23T08:29:25;7.10;99.90
29687;DHT22;16599;47.078;15.536;2024-02-23T08:31:52;7.10;99.90
29687;DHT22;16599;47.078;15.536;2024-02-23T08:34:19;7.10;99.90
29687;DHT22;16599;47.078;15.536;2024-02-23T08:36:46;7.10;99.90
29687;DHT22;16599;47.078;15.536;2024-02-23T08:42:09;7.10;99.90
29687;DHT22;16599;47.078;15.536;2024-02-23T08:44:35;7.10;99.90
29687;DHT22;16599;47.078;15.536;2024-02-23T08:47:03;7.20;99.90
29687;DHT22;16599;47.078;15.536;2024-02-23T08:49:29;7.20;99.90
29687;DHT22;16599;47.078;15.536;2024-02-23T08:51:56;7.10;99.90
29687;DHT22;16599;47.078;15.536;2024-02-23T08:54:24;7.10;99.90
29687;DHT22;16599;47.078;15.536;2024-02-23T08:56:51;7.20;99.90
29687;DHT22;16599;47.078;15.536;2024-02-23T08:59:18;7.10;99.90
29687;DHT22;16599;47.078;15.536;2024-02-23T09:01:45;7.10;99.90
29687;DHT22;16599;47.078;15.536;2024-02-23T09:04:13;7.10;99.90
29687;DHT22;16599;47.078;15.536;2024-02-23T09:06:40;7.10;99.90
29687;DHT22;16599;47.078;15.536;2024-02-23T09:09:07;7.00;99.90
29687;DHT22;16599;47.078;15.536;2024-02-23T09:11:35;7.00;99.90
29687;DHT22;16599;47.078;15.536;2024-02-23T09:14:03;7.00;99.90
29687;DHT22;16599;47.078;15.536;2024-02-23T09:16:29;7.10;99.90
29687;DHT22;16599;47.078;15.536;2024-02-23T09:18:56;7.10;99.90
29687;DHT22;16599;47.078;15.536;2024-02-23T09:21:23;7.20;99.90
29687;DHT22;16599;47.078;15.536;2024-02-23T09:23:50;7.20;99.90
29687;DHT22;16599;47.078;15.536;2024-02-23T09:26:16;7.20;99.90
29687;DHT22;16599;47.078;15.536;2024-02-23T09:28:44;7.20;99.90
29687;DHT22;16599;47.078;15.536;2024-02-23T09:31:11;7.30;99.90
29687;DHT22;16599;47.078;15.536;2024-02-23T09:33:38;7.30;99.90
29687;DHT22;16599;47.078;15.536;2024-02-23T09:36:05;7.40;99.90
29687;DHT22;16599;47.078;15.536;2024-02-23T09:38:32;7.40;99.90
29687;DHT22;16599;47.078;15.536;2024-02-23T09:40:59;7.30;99.90
29687;DHT22;16599;47.078;15.536;2024-02-23T09:43:30;7.20;99.90
29687;DHT22;16599;47.078;15.536;2024-02-23T09:45:59;7.20;99.90
29687;DHT22;16599;47.078;15.536;2024-02-23T09:48:26;7.20;99.90
29687;DHT22;16599;47.078;15.536;2024-02-23T09:50:53;7.20;99.90
29687;DHT22;16599;47.078;15.536;2024-02-23T09:53:20;7.20;99.90
29687;DHT22;16599;47.078;15.536;2024-02-23T09:55:48;7.20;99.90
29687;DHT22;16599;47.078;15.536;2024-02-23T09:58:17;7.20;99.90
29687;DHT22;16599;47.078;15.536;2024-02-23T10:00:45;7.20;99.90
29687;DHT22;16599;47.078;15.536;2024-02-23T10:03:12;7.20;99.90
29687;DHT22;16599;47.078;15.536;2024-02-23T10:05:39;7.20;99.90
29687;DHT22;16599;47.078;15.536;2024-02-23T10:08:08;7.20;99.90
29687;DHT22;16599;47.078;15.536;2024-02-23T10:10:36;7.20;99.90
29687;DHT22;16599;47.078;15.536;2024-02-23T10:13:05;7.20;99.90
29687;DHT22;16599;47.078;15.536;2024-02-23T10:15:32;7.20;99.90
29687;DHT22;16599;47.078;15.536;2024-02-23T10:17:59;7.20;99.90
29687;DHT22;16599;47.078;15.536;2024-02-23T10:20:26;7.20;99.90
29687;DHT22;16599;47.078;15.536;2024-02-23T10:22:53;7.20;99.90
29687;DHT22;16599;47.078;15.536;2024-02-23T10:25:20;7.20;99.90
29687;DHT22;16599;47.078;15.536;2024-02-23T10:27:47;7.20;99.90
29687;DHT22;16599;47.078;15.536;2024-02-23T10:30:14;7.20;99.90
29687;DHT22;16599;47.078;15.536;2024-02-23T10:32:43;7.10;99.90
29687;DHT22;16599;47.078;15.536;2024-02-23T10:35:15;7.10;99.90
29687;DHT22;16599;47.078;15.536;2024-02-23T10:37:43;7.10;99.90
29687;DHT22;16599;47.078;15.536;2024-02-23T10:40:14;7.10;99.90
29687;DHT22;16599;47.078;15.536;2024-02-23T10:42:46;7.10;99.90
29687;DHT22;16599;47.078;15.536;2024-02-23T10:45:18;7.10;99.90
29687;DHT22;16599;47.078;15.536;2024-02-23T10:47:45;7.10;99.90
29687;DHT22;16599;47.078;15.536;2024-02-23T10:50:14;7.20;99.90
29687;DHT22;16599;47.078;15.536;2024-02-23T10:52:44;7.20;99.90
29687;DHT22;16599;47.078;15.536;2024-02-23T10:55:12;7.30;99.90
29687;DHT22;16599;47.078;15.536;2024-02-23T10:57:39;7.20;99.90
29687;DHT22;16599;47.078;15.536;2024-02-23T11:00:07;7.20;99.90
29687;DHT22;16599;47.078;15.536;2024-02-23T11:02:54;7.20;99.90
29687;DHT22;16599;47.078;15.536;2024-02-23T11:05:22;7.30;99.90
29687;DHT22;16599;47.078;15.536;2024-02-23T11:07:49;7.20;99.90
29687;DHT22;16599;47.078;15.536;2024-02-23T11:10:17;7.30;99.90
29687;DHT22;16599;47.078;15.536;2024-02-23T11:12:45;7.30;99.90
29687;DHT22;16599;47.078;15.536;2024-02-23T11:15:25;7.30;99.90
29687;DHT22;16599;47.078;15.536;2024-02-23T11:17:52;7.30;99.90
29687;DHT22;16599;47.078;15.536;2024-02-23T11:20:19;7.40;99.90
29687;DHT22;16599;47.078;15.536;2024-02-23T11:22:56;7.40;99.90
29687;DHT22;16599;47.078;15.536;2024-02-23T11:25:28;7.50;99.90
29687;DHT22;16599;47.078;15.536;2024-02-23T11:27:56;7.50;99.90
29687;DHT22;16599;47.078;15.536;2024-02-23T11:30:23;7.60;99.90
29687;DHT22;16599;47.078;15.536;2024-02-23T11:32:52;7.60;99.90
29687;DHT22;16599;47.078;15.536;2024-02-23T11:38:10;7.70;99.90
29687;DHT22;16599;47.078;15.536;2024-02-23T11:40:37;7.70;99.90
29687;DHT22;16599;47.078;15.536;2024-02-23T11:43:05;7.80;99.90
29687;DHT22;16599;47.078;15.536;2024-02-23T11:45:33;7.70;99.90
29687;DHT22;16599;47.078;15.536;2024-02-23T11:48:00;7.80;99.90
29687;DHT22;16599;47.078;15.536;2024-02-23T11:50:27;7.80;99.90
29687;DHT22;16599;47.078;15.536;2024-02-23T11:52:54;7.80;99.90
29687;DHT22;16599;47.078;15.536;2024-02-23T11:55:21;7.90;99.90
29687;DHT22;16599;47.078;15.536;2024-02-23T11:57:50;7.90;99.90
29687;DHT22;16599;47.078;15.536;2024-02-23T12:00:27;8.00;99.90
29687;DHT22;16599;47.078;15.536;2024-02-23T12:02:56;8.00;99.90
29687;DHT22;16599;47.078;15.536;2024-02-23T12:05:23;8.10;99.90
29687;DHT22;16599;47.078;15.536;2024-02-23T12:07:52;8.10;99.90
29687;DHT22;16599;47.078;15.536;2024-02-23T12:10:20;8.10;99.90
29687;DHT22;16599;47.078;15.536;2024-02-23T12:12:46;8.20;99.90
29687;DHT22;16599;47.078;15.536;2024-02-23T12:15:13;8.20;99.90
29687;DHT22;16599;47.078;15.536;2024-02-23T12:17:47;8.20;99.90
29687;DHT22;16599;47.078;15.536;2024-02-23T12:20:14;8.20;99.90
29687;DHT22;16599;47.078;15.536;2024-02-23T12:22:41;8.20;99.90
29687;DHT22;16599;47.078;15.536;2024-02-23T12:25:08;8.20;99.90
29687;DHT22;16599;47.078;15.536;2024-02-23T12:27:35;8.20;99.90
29687;DHT22;16599;47.078;15.536;2024-02-23T12:30:01;8.20;99.90
29687;DHT22;16599;47.078;15.536;2024-02-23T12:32:28;8.30;99.90
29687;DHT22;16599;47.078;15.536;2024-02-23T12:34:55;8.30;99.90
29687;DHT22;16599;47.078;15.536;2024-02-23T12:37:22;8.30;99.90
29687;DHT22;16599;47.078;15.536;2024-02-23T12:39:49;8.30;99.90
29687;DHT22;16599;47.078;15.536;2024-02-23T12:42:17;8.30;99.90
29687;DHT22;16599;47.078;15.536;2024-02-23T12:44:44;8.30;99.90
29687;DHT22;16599;47.078;15.536;2024-02-23T12:47:11;8.30;99.90
29687;DHT22;16599;47.078;15.536;2024-02-23T12:49:38;8.30;99.90
29687;DHT22;16599;47.078;15.536;2024-02-23T12:52:08;8.30;99.90
29687;DHT22;16599;47.078;15.536;2024-02-23T12:54:35;8.40;99.90
29687;DHT22;16599;47.078;15.536;2024-02-23T12:57:02;8.30;99.90
29687;DHT22;16599;47.078;15.536;2024-02-23T12:59:29;8.40;99.90
29687;DHT22;16599;47.078;15.536;2024-02-23T13:01:55;8.40;99.90
29687;DHT22;16599;47.078;15.536;2024-02-23T13:04:22;8.30;99.90
29687;DHT22;16599;47.078;15.536;2024-02-23T13:06:49;8.40;99.90
29687;DHT22;16599;47.078;15.536;2024-02-23T13:09:16;8.30;99.90
29687;DHT22;16599;47.078;15.536;2024-02-23T13:11:43;8.30;99.90
29687;DHT22;16599;47.078;15.536;2024-02-23T13:14:12;8.30;99.90
29687;DHT22;16599;47.078;15.536;2024-02-23T13:16:39;8.30;99.90
29687;DHT22;16599;47.078;15.536;2024-02-23T13:19:07;8.30;99.90
29687;DHT22;16599;47.078;15.536;2024-02-23T13:21:36;8.30;99.90
29687;DHT22;16599;47.078;15.536;2024-02-23T13:24:03;8.30;99.90
29687;DHT22;16599;47.078;15.536;2024-02-23T13:26:29;8.30;99.90
29687;DHT22;16599;47.078;15.536;2024-02-23T13:28:56;8.30;99.90
29687;DHT22;16599;47.078;15.536;2024-02-23T13:31:23;8.20;99.90
29687;DHT22;16599;47.078;15.536;2024-02-23T13:33:50;8.20;99.90
29687;DHT22;16599;47.078;15.536;2024-02-23T13:36:17;8.20;99.90
29687;DHT22;16599;47.078;15.536;2024-02-23T13:38:44;8.20;99.90
29687;DHT22;16599;47.078;15.536;2024-02-23T13:41:10;8.20;99.90
29687;DHT22;16599;47.078;15.536;2024-02-23T13:43:38;8.20;99.90
29687;DHT22;16599;47.078;15.536;2024-02-23T13:46:05;8.20;99.90
29687;DHT22;16599;47.078;15.536;2024-02-23T13:48:32;8.20;99.90
29687;DHT22;16599;47.078;15.536;2024-02-23T13:50:59;8.20;99.90
29687;DHT22;16599;47.078;15.536;2024-02-23T13:53:30;8.20;99.90
29687;DHT22;16599;47.078;15.536;2024-02-23T13:55:58;8.20;99.90
29687;DHT22;16599;47.078;15.536;2024-02-23T13:58:43;8.20;99.90
29687;DHT22;16599;47.078;15.536;2024-02-23T14:01:14;8.30;99.90
29687;DHT22;16599;47.078;15.536;2024-02-23T14:03:41;8.30;99.90
29687;DHT22;16599;47.078;15.536;2024-02-23T14:06:08;8.30;99.90
29687;DHT22;16599;47.078;15.536;2024-02-23T14:08:35;8.20;99.90
29687;DHT22;16599;47.078;15.536;2024-02-23T14:11:03;8.10;99.90
29687;DHT22;16599;47.078;15.536;2024-02-23T14:13:33;8.20;99.90
29687;DHT22;16599;47.078;15.536;2024-02-23T14:16:00;8.20;99.90
29687;DHT22;16599;47.078;15.536;2024-02-23T14:18:28;8.20;99.90
29687;DHT22;16599;47.078;15.536;2024-02-23T14:20:55;8.20;99.90
29687;DHT22;16599;47.078;15.536;2024-02-23T14:23:21;8.20;99.90
29687;DHT22;16599;47.078;15.536;2024-02-23T14:25:48;8.20;99.90
29687;DHT22;16599;47.078;15.536;2024-02-23T14:28:15;8.20;99.90
29687;DHT22;16599;47.078;15.536;2024-02-23T14:30:42;8.20;99.90
29687;DHT22;16599;47.078;15.536;2024-02-23T14:33:10;8.20;99.90
29687;DHT22;16599;47.078;15.536;2024-02-23T14:39:07;8.20;99.90
29687;DHT22;16599;47.078;15.536;2024-02-23T14:41:34;8.20;99.90
29687;DHT22;16599;47.078;15.536;2024-02-23T14:44:01;8.10;99.90
29687;DHT22;16599;47.078;15.536;2024-02-23T14:49:57;8.00;99.90
29687;DHT22;16599;47.078;15.536;2024-02-23T14:52:24;8.00;99.90
29687;DHT22;16599;47.078;15.536;2024-02-23T14:54:50;7.90;99.90
29687;DHT22;16599;47.078;15.536;2024-02-23T14:57:17;7.90;99.90
29687;DHT22;16599;47.078;15.536;2024-02-23T14:59:44;7.90;99.90
29687;DHT22;16599;47.078;15.536;2024-02-23T15:02:14;7.80;99.90
29687;DHT22;16599;47.078;15.536;2024-02-23T15:04:45;7.70;99.90
29687;DHT22;16599;47.078;15.536;2024-02-23T15:07:12;7.60;99.90
29687;DHT22;16599;47.078;15.536;2024-02-23T15:09:39;7.60;99.90
29687;DHT22;16599;47.078;15.536;2024-02-23T15:12:06;7.60;99.90
29687;DHT22;16599;47.078;15.536;2024-02-23T15:14:33;7.50;99.90
29687;DHT22;16599;47.078;15.536;2024-02-23T15:17:00;7.60;99.90
29687;DHT22;16599;47.078;15.536;2024-02-23T15:19:27;7.60;99.90
29687;DHT22;16599;47.078;15.536;2024-02-23T15:21:54;7.60;99.90
29687;DHT22;16599;47.078;15.536;2024-02-23T15:24:21;7.60;99.90
29687;DHT22;16599;47.078;15.536;2024-02-23T15:26:50;7.60;99.90
29687;DHT22;16599;47.078;15.536;2024-02-23T15:29:18;7.50;99.90
29687;DHT22;16599;47.078;15.536;2024-02-23T15:31:44;7.60;99.90
29687;DHT22;16599;47.078;15.536;2024-02-23T15:34:11;7.50;99.90
29687;DHT22;16599;47.078;15.536;2024-02-23T15:36:38;7.40;99.90
29687;DHT22;16599;47.078;15.536;2024-02-23T15:39:05;7.50;99.90
29687;DHT22;16599;47.078;15.536;2024-02-23T15:41:33;7.40;99.90
29687;DHT22;16599;47.078;15.536;2024-02-23T15:44:01;7.40;99.90